Time;durP1;ratioP1;P1;durP2;ratioP2;P2;SDS_P1;SDS_P2;PMS_P1;PMS_P2;Temp;Humidity;BMP_temperature;BMP_pressure;BME280_temperature;BME280_humidity;BME280_pressure;Samples;Min_cycle;Max_cycle;Signal;HPM_P1;HPM_P2
2022/02/06 00:01:17;;;;;;;3.92;1.35;;;;;;;;;;5124485;27;20113;-75
2022/02/06 00:03:43;;;;;;;4.25;1.20;;;;;;;;;;5123092;27;20099;-74
2022/02/06 00:06:10;;;;;;;3.80;1.10;;;;;;;;;;5123024;27;21498;-75
2022/02/06 00:08:38;;;;;;;3.30;1.13;;;;;;;;;;5130893;27;20111;-76
2022/02/06 00:11:06;;;;;;;2.42;1.08;;;;;;;;;;5126104;27;20039;-77
2022/02/06 00:13:33;;;;;;;3.15;1.17;;;;;;;;;;5121015;27;20078;-75
2022/02/06 00:16:13;;;;;;;5.03;1.45;;;;;;;;;;5123844;27;20043;-74
2022/02/06 00:18:42;;;;;;;4.47;1.60;;;;;;;;;;5127922;28;20082;-74
2022/02/06 00:21:13;;;;;;;3.72;1.30;;;;;;;;;;5129463;28;20487;-74
2022/02/06 00:23:39;;;;;;;4.68;1.60;;;;;;;;;;5121621;28;20078;-76
2022/02/06 00:26:13;;;;;;;5.18;1.10;;;;;;;;;;5125759;28;20429;-74
2022/02/06 00:28:44;;;;;;;4.60;1.40;;;;;;;;;;5115147;28;20048;-75
2022/02/06 00:31:21;;;;;;;3.85;1.52;;;;;;;;;;5124319;28;20126;-74
2022/02/06 00:34:15;;;;;;;4.43;1.52;;;;;;;;;;5125081;28;20042;-74
2022/02/06 00:39:22;;;;;;;5.07;1.17;;;;;;;;;;5125746;28;20054;-75
2022/02/06 00:41:50;;;;;;;2.22;1.13;;;;;;;;;;5120545;28;20400;-74
2022/02/06 00:44:16;;;;;;;4.60;1.10;;;;;;;;;;5127028;28;20074;-74
2022/02/06 00:46:44;;;;;;;2.83;0.95;;;;;;;;;;5123310;28;20127;-75
2022/02/06 00:49:14;;;;;;;6.03;1.13;;;;;;;;;;5130830;28;20107;-76
2022/02/06 00:51:49;;;;;;;3.40;1.42;;;;;;;;;;5128256;28;20100;-75
2022/02/06 00:54:15;;;;;;;5.53;1.33;;;;;;;;;;5131393;28;20126;-75
2022/02/06 00:56:42;;;;;;;5.18;0.82;;;;;;;;;;5121593;28;20134;-77
2022/02/06 00:59:10;;;;;;;2.88;1.10;;;;;;;;;;5129038;28;20129;-75
2022/02/06 01:01:41;;;;;;;5.22;1.35;;;;;;;;;;5132227;28;20074;-75
2022/02/06 01:04:08;;;;;;;4.15;1.15;;;;;;;;;;5114745;28;20055;-75
2022/02/06 01:06:34;;;;;;;4.47;1.20;;;;;;;;;;5127234;28;20070;-75
2022/02/06 01:09:01;;;;;;;4.07;1.20;;;;;;;;;;5122765;28;20078;-75
2022/02/06 01:11:29;;;;;;;3.83;1.02;;;;;;;;;;5114745;28;20063;-74
2022/02/06 01:14:05;;;;;;;4.35;0.95;;;;;;;;;;5122146;28;20047;-75
2022/02/06 01:16:47;;;;;;;3.97;1.05;;;;;;;;;;5127637;27;20119;-75
2022/02/06 01:19:18;;;;;;;4.70;1.52;;;;;;;;;;5130628;27;20046;-75
2022/02/06 01:21:51;;;;;;;7.63;2.17;;;;;;;;;;5132094;27;20046;-76
2022/02/06 01:24:21;;;;;;;2.83;1.00;;;;;;;;;;5126121;27;20067;-75
2022/02/06 01:26:52;;;;;;;3.67;1.20;;;;;;;;;;5135362;27;20035;-75
2022/02/06 01:29:30;;;;;;;3.92;1.65;;;;;;;;;;5128330;27;20056;-75
2022/02/06 01:32:05;;;;;;;6.10;1.17;;;;;;;;;;5131195;27;20035;-75
2022/02/06 01:34:40;;;;;;;4.18;1.08;;;;;;;;;;5133362;27;20130;-77
2022/02/06 01:37:14;;;;;;;6.05;1.20;;;;;;;;;;5133525;27;20494;-75
2022/02/06 01:39:54;;;;;;;6.80;1.90;;;;;;;;;;5128838;27;20089;-76
2022/02/06 01:42:28;;;;;;;6.00;1.30;;;;;;;;;;5128250;27;20065;-75
2022/02/06 01:45:09;;;;;;;5.90;2.25;;;;;;;;;;5124830;27;20050;-75
2022/02/06 02:01:31;;;;;;;3.95;1.50;;;;;;;;;;5132457;27;20065;-78
2022/02/06 02:04:07;;;;;;;5.93;1.42;;;;;;;;;;5133228;27;20039;-75
2022/02/06 02:09:49;;;;;;;6.78;2.13;;;;;;;;;;5134327;27;20100;-75
2022/02/06 02:12:28;;;;;;;5.95;1.25;;;;;;;;;;5124384;27;20050;-75
2022/02/06 02:15:15;;;;;;;7.53;1.48;;;;;;;;;;5118619;27;20059;-75
2022/02/06 02:18:07;;;;;;;4.97;1.95;;;;;;;;;;5133023;27;20039;-75
2022/02/06 02:29:25;;;;;;;3.75;0.98;;;;;;;;;;5120823;27;20506;-75
2022/02/06 02:32:31;;;;;;;3.20;1.30;;;;;;;;;;5127170;27;20054;-75
2022/02/06 02:43:58;;;;;;;3.88;1.10;;;;;;;;;;5123547;27;20050;-76
2022/02/06 02:46:27;;;;;;;11.30;1.45;;;;;;;;;;5130938;27;20122;-75
2022/02/06 02:48:55;;;;;;;;;;;;;;;;;;5132341;27;20048;-75
2022/02/06 02:51:25;;;;;;;5.65;1.38;;;;;;;;;;5132729;27;19965;-76
2022/02/06 02:53:54;;;;;;;9.50;1.60;;;;;;;;;;5126082;27;20066;-75
2022/02/06 02:56:34;;;;;;;2.33;1.25;;;;;;;;;;5120483;27;20067;-75
2022/02/06 02:59:07;;;;;;;7.25;1.23;;;;;;;;;;5127108;27;20043;-75
2022/02/06 03:01:39;;;;;;;3.90;1.50;;;;;;;;;;5125774;27;20051;-75
2022/02/06 03:04:11;;;;;;;3.20;1.30;;;;;;;;;;5124680;27;22282;-76
2022/02/06 03:06:38;;;;;;;4.90;1.95;;;;;;;;;;5119787;27;20095;-76
2022/02/06 03:09:07;;;;;;;7.07;1.33;;;;;;;;;;5120471;27;20475;-76
2022/02/06 03:11:33;;;;;;;7.30;1.23;;;;;;;;;;5132041;27;20043;-77
2022/02/06 03:14:05;;;;;;;4.30;0.95;;;;;;;;;;5120866;27;20043;-76
2022/02/06 03:16:35;;;;;;;6.70;1.40;;;;;;;;;;5131802;27;20055;-75
2022/02/06 03:19:08;;;;;;;6.15;1.60;;;;;;;;;;5131055;27;20051;-75
2022/02/06 03:21:36;;;;;;;6.32;1.25;;;;;;;;;;5124769;27;20092;-75
2022/02/06 03:24:24;;;;;;;5.85;1.02;;;;;;;;;;5121428;27;20050;-75
2022/02/06 03:26:52;;;;;;;3.17;0.90;;;;;;;;;;5130668;27;20138;-76
2022/02/06 03:29:20;;;;;;;8.00;1.58;;;;;;;;;;5131595;27;20760;-75
2022/02/06 03:31:47;;;;;;;3.22;1.25;;;;;;;;;;5122820;27;20133;-75
2022/02/06 03:34:14;;;;;;;3.08;1.08;;;;;;;;;;5121171;27;20067;-75
2022/02/06 03:36:41;;;;;;;7.63;1.40;;;;;;;;;;5129933;27;20119;-75
2022/02/06 03:39:09;;;;;;;4.30;1.00;;;;;;;;;;5124500;27;20071;-76
2022/02/06 03:41:49;;;;;;;8.02;1.35;;;;;;;;;;5120411;27;20075;-76
2022/02/06 03:44:23;;;;;;;5.93;1.40;;;;;;;;;;5126491;27;20136;-75
2022/02/06 03:47:00;;;;;;;3.80;1.17;;;;;;;;;;5123988;27;20042;-75
2022/02/06 03:49:34;;;;;;;4.43;1.75;;;;;;;;;;5116027;27;20076;-75
2022/02/06 03:52:00;;;;;;;6.63;1.40;;;;;;;;;;5132313;27;20051;-77
2022/02/06 03:54:28;;;;;;;3.53;1.52;;;;;;;;;;5129871;27;20104;-76
2022/02/06 03:56:56;;;;;;;4.95;1.42;;;;;;;;;;5124862;27;20071;-75
2022/02/06 03:59:23;;;;;;;8.15;1.30;;;;;;;;;;5122657;27;20051;-76
2022/02/06 04:01:49;;;;;;;3.30;1.20;;;;;;;;;;5124068;27;20072;-76
2022/02/06 04:04:16;;;;;;;12.63;1.25;;;;;;;;;;5116208;27;20071;-76
2022/02/06 04:06:42;;;;;;;5.07;1.20;;;;;;;;;;5120022;27;20127;-76
2022/02/06 04:09:15;;;;;;;9.55;1.73;;;;;;;;;;5127675;27;20080;-79
2022/02/06 04:11:50;;;;;;;6.88;1.20;;;;;;;;;;5115610;27;20051;-76
2022/02/06 04:14:26;;;;;;;5.05;1.88;;;;;;;;;;5124482;27;20050;-75
2022/02/06 04:16:55;;;;;;;2.97;1.25;;;;;;;;;;5117800;28;20052;-77
2022/02/06 04:19:24;;;;;;;4.85;1.13;;;;;;;;;;5128646;28;20043;-76
2022/02/06 04:21:51;;;;;;;3.20;1.13;;;;;;;;;;5121807;28;20062;-76
2022/02/06 04:24:19;;;;;;;4.35;1.25;;;;;;;;;;5121481;28;20050;-77
2022/02/06 04:26:47;;;;;;;4.35;1.23;;;;;;;;;;5122019;28;20078;-75
2022/02/06 04:29:14;;;;;;;5.32;1.38;;;;;;;;;;5125766;28;20051;-76
2022/02/06 04:31:42;;;;;;;4.05;1.48;;;;;;;;;;5128098;28;20051;-76
2022/02/06 04:34:08;;;;;;;3.22;1.42;;;;;;;;;;5131980;28;20058;-75
2022/02/06 04:36:41;;;;;;;6.85;1.40;;;;;;;;;;5129340;28;20503;-78
2022/02/06 04:39:22;;;;;;;10.57;2.15;;;;;;;;;;5130103;28;20118;-76
2022/02/06 04:42:01;;;;;;;2.08;1.13;;;;;;;;;;5119513;28;20052;-75
2022/02/06 04:55:54;;;;;;;2.90;0.98;;;;;;;;;;5121691;27;20521;-76
2022/02/06 05:15:11;;;;;;;4.63;1.15;;;;;;;;;;5128631;27;20039;-75
2022/02/06 05:18:09;;;;;;;3.65;1.48;;;;;;;;;;5126881;27;20517;-76
2022/02/06 05:21:03;;;;;;;4.97;1.55;;;;;;;;;;5133077;27;20138;-76
2022/02/06 05:23:45;;;;;;;3.92;1.02;;;;;;;;;;5128340;27;20035;-76
2022/02/06 05:29:35;;;;;;;5.55;1.30;;;;;;;;;;4843095;27;8247866;-76
2022/02/06 05:32:15;;;;;;;8.18;1.20;;;;;;;;;;5140769;27;20051;-76
2022/02/06 05:34:41;;;;;;;4.43;2.03;;;;;;;;;;5148381;27;20463;-76
2022/02/06 05:37:08;;;;;;;4.80;0.90;;;;;;;;;;5145091;27;20126;-75
2022/02/06 05:39:34;;;;;;;2.83;0.98;;;;;;;;;;5148441;27;20070;-75
2022/02/06 05:42:01;;;;;;;2.97;1.30;;;;;;;;;;5132107;27;20126;-76
2022/02/06 05:44:29;;;;;;;4.95;1.20;;;;;;;;;;5127514;28;20077;-75
2022/02/06 05:46:56;;;;;;;3.60;0.82;;;;;;;;;;5122363;28;20389;-76
2022/02/06 05:49:22;;;;;;;6.93;1.42;;;;;;;;;;5120403;28;20074;-75
2022/02/06 05:51:49;;;;;;;9.55;1.98;;;;;;;;;;5121885;28;20084;-77
2022/02/06 05:54:16;;;;;;;4.72;0.93;;;;;;;;;;5127873;28;20078;-76
2022/02/06 05:56:42;;;;;;;2.22;0.98;;;;;;;;;;5128550;28;20436;-79
2022/02/06 05:59:09;;;;;;;5.40;1.10;;;;;;;;;;5126949;28;20127;-77
2022/02/06 06:01:37;;;;;;;6.30;2.25;;;;;;;;;;5129830;28;20135;-76
2022/02/06 06:04:04;;;;;;;3.17;1.70;;;;;;;;;;5128247;28;20122;-76
2022/02/06 06:06:35;;;;;;;5.05;1.23;;;;;;;;;;5125272;28;20143;-76
2022/02/06 06:09:02;;;;;;;3.40;1.20;;;;;;;;;;5118309;28;20050;-76
2022/02/06 06:11:28;;;;;;;3.92;0.95;;;;;;;;;;5120495;28;20071;-76
2022/02/06 06:13:55;;;;;;;3.75;1.10;;;;;;;;;;5111359;28;20127;-75
2022/02/06 06:16:21;;;;;;;5.10;1.30;;;;;;;;;;5123558;28;20078;-75
2022/02/06 06:18:49;;;;;;;6.05;1.80;;;;;;;;;;5112943;28;20071;-76
2022/02/06 06:21:18;;;;;;;2.70;1.15;;;;;;;;;;5121406;28;20092;-76
2022/02/06 06:23:44;;;;;;;2.70;1.05;;;;;;;;;;5128737;28;20436;-77
2022/02/06 06:26:15;;;;;;;4.15;1.23;;;;;;;;;;5124570;28;20130;-76
2022/02/06 06:28:42;;;;;;;3.00;1.20;;;;;;;;;;5110216;28;20078;-76
2022/02/06 06:31:10;;;;;;;1.65;0.93;;;;;;;;;;5108940;28;20155;-75
2022/02/06 06:33:36;;;;;;;5.05;1.05;;;;;;;;;;5107836;28;20067;-76
2022/02/06 06:36:05;;;;;;;4.85;1.23;;;;;;;;;;5106996;28;20079;-76
2022/02/06 06:38:34;;;;;;;5.78;1.92;;;;;;;;;;5103708;28;20044;-76
2022/02/06 06:41:00;;;;;;;15.07;1.85;;;;;;;;;;5095011;28;20040;-76
2022/02/06 06:43:27;;;;;;;4.40;1.77;;;;;;;;;;5101741;28;20249;-76
2022/02/06 06:45:53;;;;;;;3.30;1.23;;;;;;;;;;5094521;28;20575;-76
2022/02/06 06:48:20;;;;;;;2.83;1.02;;;;;;;;;;5093624;28;20128;-75
2022/02/06 06:50:47;;;;;;;6.70;2.45;;;;;;;;;;5092206;28;21205;-76
2022/02/06 06:53:14;;;;;;;4.78;1.40;;;;;;;;;;5094687;28;20079;-76
2022/02/06 06:55:44;;;;;;;6.15;1.17;;;;;;;;;;5095198;28;20040;-76
2022/02/06 06:58:15;;;;;;;4.82;1.23;;;;;;;;;;5093288;28;20048;-76
2022/02/06 07:00:54;;;;;;;5.38;1.35;;;;;;;;;;5086720;28;20548;-75
2022/02/06 07:03:21;;;;;;;4.93;1.30;;;;;;;;;;5094196;28;20124;-76
2022/02/06 07:05:48;;;;;;;3.58;1.20;;;;;;;;;;5085248;28;20127;-76
2022/02/06 07:08:17;;;;;;;4.68;1.08;;;;;;;;;;5094617;28;20079;-75
2022/02/06 07:10:43;;;;;;;3.75;1.50;;;;;;;;;;5093916;28;20048;-76
2022/02/06 07:13:11;;;;;;;5.72;1.45;;;;;;;;;;5093885;28;20654;-76
2022/02/06 07:15:38;;;;;;;4.45;1.45;;;;;;;;;;5094030;28;20126;-76
2022/02/06 07:18:04;;;;;;;8.70;2.17;;;;;;;;;;5091249;28;20086;-76
2022/02/06 07:20:33;;;;;;;6.72;1.40;;;;;;;;;;5092633;28;20123;-76
2022/02/06 07:22:59;;;;;;;7.03;1.40;;;;;;;;;;5094647;28;20076;-77
2022/02/06 07:25:27;;;;;;;4.38;1.63;;;;;;;;;;5092613;28;20526;-76
2022/02/06 07:27:55;;;;;;;5.07;1.45;;;;;;;;;;5099513;28;20106;-76
2022/02/06 07:30:21;;;;;;;10.43;1.70;;;;;;;;;;5112565;28;20044;-77
2022/02/06 07:32:48;;;;;;;4.82;1.38;;;;;;;;;;5103902;28;20334;-77
2022/02/06 07:35:15;;;;;;;4.10;1.63;;;;;;;;;;5102985;28;20098;-76
2022/02/06 07:37:45;;;;;;;4.68;1.23;;;;;;;;;;5108636;28;20082;-76
2022/02/06 07:40:13;;;;;;;3.80;1.20;;;;;;;;;;5109340;28;20071;-77
2022/02/06 07:42:41;;;;;;;4.43;1.73;;;;;;;;;;5113306;28;20487;-76
2022/02/06 07:45:10;;;;;;;7.78;1.48;;;;;;;;;;5113671;28;20048;-77
2022/02/06 07:47:38;;;;;;;4.80;1.48;;;;;;;;;;5110278;28;20047;-76
2022/02/06 07:50:06;;;;;;;5.03;1.58;;;;;;;;;;5110408;28;20399;-76
2022/02/06 07:52:34;;;;;;;6.40;1.30;;;;;;;;;;5105390;28;20086;-75
2022/02/06 07:55:03;;;;;;;5.28;1.38;;;;;;;;;;5097331;28;20052;-76
2022/02/06 07:57:30;;;;;;;6.85;1.73;;;;;;;;;;5112550;28;20044;-76
2022/02/06 07:59:58;;;;;;;1.75;0.80;;;;;;;;;;5110912;28;20078;-77
2022/02/06 08:02:24;;;;;;;3.70;1.30;;;;;;;;;;5101413;28;20040;-77
2022/02/06 08:04:51;;;;;;;5.45;2.42;;;;;;;;;;5100634;28;20079;-76
2022/02/06 08:07:18;;;;;;;2.90;0.93;;;;;;;;;;5109687;28;20043;-75
2022/02/06 08:09:52;;;;;;;4.15;1.23;;;;;;;;;;5109549;28;20093;-77
2022/02/06 08:12:26;;;;;;;2.97;1.60;;;;;;;;;;5110317;28;20051;-76
2022/02/06 08:14:55;;;;;;;7.13;1.65;;;;;;;;;;5102356;28;20052;-75
2022/02/06 08:17:25;;;;;;;3.97;1.00;;;;;;;;;;5102170;28;20036;-76
2022/02/06 08:19:52;;;;;;;4.75;1.30;;;;;;;;;;5110960;28;20048;-77
2022/02/06 08:22:19;;;;;;;3.05;1.10;;;;;;;;;;5111744;28;20075;-77
2022/02/06 08:24:46;;;;;;;2.83;0.90;;;;;;;;;;5105414;28;20090;-76
2022/02/06 08:27:12;;;;;;;3.80;1.05;;;;;;;;;;5111856;28;20051;-76
2022/02/06 08:29:42;;;;;;;4.25;1.58;;;;;;;;;;5101266;28;20043;-76
2022/02/06 08:32:09;;;;;;;5.38;1.23;;;;;;;;;;5110445;28;20140;-75
2022/02/06 08:34:37;;;;;;;2.60;0.88;;;;;;;;;;5110631;28;20043;-76
2022/02/06 08:37:04;;;;;;;4.57;1.35;;;;;;;;;;5100448;28;20118;-76
2022/02/06 08:39:32;;;;;;;10.48;1.15;;;;;;;;;;5106983;28;20044;-77
2022/02/06 08:41:58;;;;;;;3.33;0.93;;;;;;;;;;5100456;28;20140;-76
2022/02/06 08:44:25;;;;;;;8.52;2.05;;;;;;;;;;5106310;28;20131;-75
2022/02/06 08:46:51;;;;;;;6.35;3.40;;;;;;;;;;5102582;28;20043;-76
2022/02/06 08:49:18;;;;;;;4.13;1.60;;;;;;;;;;5100815;28;20087;-76
2022/02/06 08:51:53;;;;;;;3.10;1.05;;;;;;;;;;5105209;28;20123;-76
2022/02/06 08:54:24;;;;;;;6.00;1.58;;;;;;;;;;5109366;28;20067;-76
2022/02/06 08:56:51;;;;;;;5.45;1.40;;;;;;;;;;5108779;28;20661;-76
2022/02/06 08:59:18;;;;;;;8.63;4.10;;;;;;;;;;5111900;28;20051;-76
2022/02/06 09:01:44;;;;;;;5.22;1.38;;;;;;;;;;5110958;28;20126;-76
2022/02/06 09:04:11;;;;;;;3.90;1.38;;;;;;;;;;5107396;28;20146;-76
2022/02/06 09:06:38;;;;;;;5.40;1.60;;;;;;;;;;5105387;28;20078;-76
2022/02/06 09:09:05;;;;;;;8.73;1.70;;;;;;;;;;5102816;28;20075;-76
2022/02/06 09:11:32;;;;;;;6.50;1.83;;;;;;;;;;5111249;28;20082;-76
2022/02/06 09:13:59;;;;;;;7.28;1.20;;;;;;;;;;5104326;28;20059;-77
2022/02/06 09:16:27;;;;;;;3.90;0.93;;;;;;;;;;5106086;28;20048;-77
2022/02/06 09:18:54;;;;;;;3.00;1.15;;;;;;;;;;5098605;28;20127;-76
2022/02/06 09:21:23;;;;;;;3.65;1.25;;;;;;;;;;5110756;28;20063;-77
2022/02/06 09:23:49;;;;;;;4.15;0.98;;;;;;;;;;5111979;28;20499;-76
2022/02/06 09:26:18;;;;;;;5.35;1.00;;;;;;;;;;5108693;28;20575;-76
2022/02/06 09:28:45;;;;;;;4.50;0.82;;;;;;;;;;5110830;28;20052;-76
2022/02/06 09:31:11;;;;;;;4.50;0.82;;;;;;;;;;5107852;28;20161;-76
2022/02/06 09:36:04;;;;;;;4.20;1.55;;;;;;;;;;5103047;28;20075;-76
2022/02/06 09:38:30;;;;;;;4.72;1.10;;;;;;;;;;5110429;28;21034;-76
2022/02/06 09:40:57;;;;;;;3.80;0.77;;;;;;;;;;5100711;28;20047;-75
2022/02/06 09:43:25;;;;;;;2.33;1.30;;;;;;;;;;5104451;28;20067;-77
2022/02/06 09:45:52;;;;;;;8.95;1.58;;;;;;;;;;5100686;28;20075;-76
2022/02/06 09:48:19;;;;;;;5.45;1.10;;;;;;;;;;5104972;28;20151;-78
2022/02/06 09:50:46;;;;;;;3.35;0.77;;;;;;;;;;5111602;28;20047;-76
2022/02/06 09:53:13;;;;;;;3.38;1.05;;;;;;;;;;5101252;28;20701;-76
2022/02/06 09:55:42;;;;;;;3.20;1.05;;;;;;;;;;5104453;28;20479;-76
2022/02/06 09:58:29;;;;;;;2.70;1.02;;;;;;;;;;5110037;28;20056;-76
2022/02/06 10:00:57;;;;;;;2.20;0.75;;;;;;;;;;5108750;28;20040;-76
2022/02/06 10:03:24;;;;;;;3.28;1.02;;;;;;;;;;5107202;28;20079;-76
2022/02/06 10:05:51;;;;;;;5.78;1.00;;;;;;;;;;5104384;28;20118;-75
2022/02/06 10:08:28;;;;;;;5.00;0.90;;;;;;;;;;5101245;28;20040;-76
2022/02/06 10:11:00;;;;;;;5.85;1.40;;;;;;;;;;5108876;28;20051;-74
2022/02/06 10:13:26;;;;;;;3.60;0.57;;;;;;;;;;5099931;28;20067;-76
2022/02/06 10:15:53;;;;;;;4.68;1.17;;;;;;;;;;5105501;28;20080;-77
2022/02/06 10:18:21;;;;;;;4.75;1.27;;;;;;;;;;5102314;28;20127;-76
2022/02/06 10:20:49;;;;;;;4.45;1.17;;;;;;;;;;5108706;28;20074;-76
2022/02/06 10:23:25;;;;;;;10.68;1.42;;;;;;;;;;5114610;28;20100;-76
2022/02/06 10:25:53;;;;;;;2.90;1.08;;;;;;;;;;5111948;28;20054;-79
2022/02/06 10:28:34;;;;;;;4.05;1.00;;;;;;;;;;5110974;28;20055;-76
2022/02/06 10:31:04;;;;;;;2.47;0.77;;;;;;;;;;5104066;28;20119;-78
2022/02/06 10:33:46;;;;;;;4.85;1.00;;;;;;;;;;5115487;28;20074;-77
2022/02/06 10:36:12;;;;;;;3.90;1.40;;;;;;;;;;5112013;28;20119;-76
2022/02/06 10:38:39;;;;;;;4.85;0.93;;;;;;;;;;5108457;28;20071;-76
2022/02/06 10:41:07;;;;;;;3.67;1.15;;;;;;;;;;5110580;28;20067;-76
2022/02/06 10:43:36;;;;;;;6.00;1.00;;;;;;;;;;5113760;28;20047;-78
2022/02/06 10:46:07;;;;;;;2.60;0.80;;;;;;;;;;5114574;28;20112;-76
2022/02/06 10:48:34;;;;;;;3.47;0.77;;;;;;;;;;5110534;28;20460;-76
2022/02/06 10:51:02;;;;;;;5.07;1.10;;;;;;;;;;5106881;28;20071;-76
2022/02/06 10:53:29;;;;;;;4.22;1.38;;;;;;;;;;5105451;28;20079;-77
2022/02/06 10:55:58;;;;;;;7.80;1.40;;;;;;;;;;5105684;28;20075;-76
2022/02/06 10:58:29;;;;;;;3.78;1.00;;;;;;;;;;5109660;28;20043;-76
2022/02/06 11:00:56;;;;;;;4.80;1.42;;;;;;;;;;5114286;28;20071;-76
2022/02/06 11:03:31;;;;;;;3.50;1.35;;;;;;;;;;5108222;28;20128;-77
2022/02/06 11:06:07;;;;;;;4.07;0.83;;;;;;;;;;5110587;28;20124;-76
2022/02/06 11:08:37;;;;;;;7.65;1.20;;;;;;;;;;5112767;28;20321;-77
2022/02/06 11:11:06;;;;;;;7.22;1.25;;;;;;;;;;5111717;28;20055;-77
2022/02/06 11:13:33;;;;;;;4.93;1.20;;;;;;;;;;5112168;28;20131;-77
2022/02/06 11:16:03;;;;;;;3.58;1.00;;;;;;;;;;5115406;27;20112;-77
2022/02/06 11:18:38;;;;;;;2.58;1.17;;;;;;;;;;5112470;28;20497;-77
2022/02/06 11:21:06;;;;;;;3.05;1.10;;;;;;;;;;5111778;28;20154;-78
2022/02/06 11:23:51;;;;;;;3.17;1.15;;;;;;;;;;5112355;28;20079;-76
2022/02/06 11:26:20;;;;;;;4.72;1.15;;;;;;;;;;5105330;28;20468;-77
2022/02/06 11:28:47;;;;;;;5.65;1.55;;;;;;;;;;5106136;28;20808;-76
2022/02/06 11:31:15;;;;;;;4.22;1.30;;;;;;;;;;5110014;28;20499;-77
2022/02/06 11:33:41;;;;;;;3.40;0.90;;;;;;;;;;5105805;28;20067;-77
2022/02/06 11:36:15;;;;;;;3.47;1.10;;;;;;;;;;5113847;28;20071;-78
2022/02/06 11:44:39;;;;;;;3.67;0.88;;;;;;;;;;5104407;28;20054;-78
2022/02/06 11:47:18;;;;;;;3.03;1.05;;;;;;;;;;5105402;27;20491;-78
2022/02/06 11:49:48;;;;;;;1.92;0.80;;;;;;;;;;5105227;28;20071;-78
2022/02/06 11:52:15;;;;;;;2.63;0.88;;;;;;;;;;5103298;28;20154;-78
2022/02/06 11:54:46;;;;;;;2.00;1.13;;;;;;;;;;5100961;28;20075;-78
2022/02/06 11:57:21;;;;;;;5.82;1.27;;;;;;;;;;5104198;28;20048;-78
2022/02/06 12:00:17;;;;;;;3.65;1.00;;;;;;;;;;5104373;28;20044;-80
2022/02/06 12:02:46;;;;;;;3.35;1.48;;;;;;;;;;5103179;28;20044;-79
2022/02/06 12:05:14;;;;;;;1.92;1.30;;;;;;;;;;5105434;28;20039;-77
2022/02/06 12:07:57;;;;;;;3.40;1.30;;;;;;;;;;5103234;28;20151;-79
2022/02/06 12:11:12;;;;;;;3.88;0.80;;;;;;;;;;5105546;28;20123;-78
2022/02/06 12:13:42;;;;;;;5.03;1.20;;;;;;;;;;5102466;28;20058;-81
2022/02/06 12:16:08;;;;;;;4.45;1.27;;;;;;;;;;5102434;28;20109;-78
2022/02/06 12:18:37;;;;;;;5.40;1.45;;;;;;;;;;5103472;28;20039;-78
2022/02/06 12:21:12;;;;;;;4.10;0.80;;;;;;;;;;5101000;28;20058;-77
2022/02/06 12:23:44;;;;;;;3.38;1.00;;;;;;;;;;5101712;28;20043;-78
2022/02/06 12:26:40;;;;;;;3.47;1.15;;;;;;;;;;5102135;28;20051;-78
2022/02/06 12:29:11;;;;;;;3.25;1.30;;;;;;;;;;5099084;28;20155;-80
2022/02/06 12:32:03;;;;;;;4.10;1.58;;;;;;;;;;5101127;27;20051;-77
2022/02/06 12:37:32;;;;;;;2.65;1.13;;;;;;;;;;5109877;27;20407;-77
2022/02/06 12:40:00;;;;;;;3.80;1.55;;;;;;;;;;5107276;27;20056;-77
2022/02/06 12:42:32;;;;;;;3.28;0.90;;;;;;;;;;5107104;27;20129;-77
2022/02/06 12:45:01;;;;;;;2.13;1.27;;;;;;;;;;5108082;27;20071;-77
2022/02/06 12:47:29;;;;;;;4.28;1.65;;;;;;;;;;5103303;27;20040;-77
2022/02/06 12:49:56;;;;;;;4.30;1.33;;;;;;;;;;5106719;27;20088;-77
2022/02/06 12:52:23;;;;;;;5.63;1.20;;;;;;;;;;5106542;27;20134;-77
2022/02/06 12:54:49;;;;;;;2.95;1.05;;;;;;;;;;5109238;27;20125;-79
2022/02/06 12:57:19;;;;;;;1.75;1.02;;;;;;;;;;5107125;27;20074;-77
2022/02/06 12:59:46;;;;;;;1.60;0.70;;;;;;;;;;5108018;27;20498;-77
2022/02/06 13:02:18;;;;;;;4.38;1.48;;;;;;;;;;5107668;27;20138;-78
2022/02/06 13:04:59;;;;;;;3.15;1.10;;;;;;;;;;5112102;27;20071;-78
2022/02/06 13:07:30;;;;;;;2.05;0.63;;;;;;;;;;5106471;27;20043;-78
2022/02/06 13:10:02;;;;;;;5.43;0.88;;;;;;;;;;5105190;27;20044;-78
2022/02/06 13:12:34;;;;;;;3.28;0.93;;;;;;;;;;5106981;27;20048;-77
2022/02/06 13:15:22;;;;;;;2.58;1.30;;;;;;;;;;5105720;27;20047;-78
2022/02/06 13:18:09;;;;;;;3.58;1.00;;;;;;;;;;5110442;27;20039;-79
2022/02/06 13:20:47;;;;;;;2.05;0.70;;;;;;;;;;5105657;27;20051;-78
2022/02/06 13:23:21;;;;;;;2.25;0.82;;;;;;;;;;5103315;27;21608;-77
2022/02/06 13:26:01;;;;;;;4.32;0.80;;;;;;;;;;5104099;28;20445;-77
2022/02/06 13:28:45;;;;;;;0.93;0.55;;;;;;;;;;5108289;28;20058;-81
2022/02/06 13:34:14;;;;;;;3.72;0.93;;;;;;;;;;5101713;28;20051;-77
2022/02/06 13:36:52;;;;;;;4.07;1.02;;;;;;;;;;5110284;28;20118;-80
2022/02/06 13:39:26;;;;;;;3.72;1.17;;;;;;;;;;5103584;28;20462;-79
2022/02/06 13:41:54;;;;;;;4.00;1.10;;;;;;;;;;5105622;28;20079;-80
2022/02/06 13:44:27;;;;;;;3.50;1.10;;;;;;;;;;5106438;28;20035;-80
2022/02/06 13:46:56;;;;;;;4.07;0.90;;;;;;;;;;5107307;28;20137;-80
2022/02/06 13:49:36;;;;;;;2.83;0.80;;;;;;;;;;5105095;27;20139;-77
2022/02/06 13:52:07;;;;;;;2.35;1.15;;;;;;;;;;5110174;27;20043;-77
2022/02/06 13:54:36;;;;;;;1.38;0.82;;;;;;;;;;5110892;27;20074;-82
2022/02/06 13:57:05;;;;;;;2.47;0.90;;;;;;;;;;5111544;27;20078;-77
2022/02/06 13:59:35;;;;;;;1.95;1.13;;;;;;;;;;5114064;27;20060;-77
2022/02/06 14:02:07;;;;;;;2.78;1.10;;;;;;;;;;5112148;27;20044;-77
2022/02/06 14:04:38;;;;;;;3.40;1.35;;;;;;;;;;5109668;27;20039;-80
2022/02/06 14:07:06;;;;;;;2.17;1.00;;;;;;;;;;5110174;27;20055;-78
2022/02/06 14:09:45;;;;;;;1.83;0.70;;;;;;;;;;5111550;27;20527;-77
2022/02/06 14:12:16;;;;;;;2.42;0.80;;;;;;;;;;5110354;27;20043;-78
2022/02/06 14:14:49;;;;;;;2.97;0.70;;;;;;;;;;5108253;27;20079;-78
2022/02/06 14:17:17;;;;;;;2.25;0.80;;;;;;;;;;5108037;27;20134;-78
2022/02/06 14:19:47;;;;;;;3.13;0.65;;;;;;;;;;5108863;27;20046;-79
2022/02/06 14:22:26;;;;;;;1.50;0.70;;;;;;;;;;5106145;27;20126;-78
2022/02/06 14:24:54;;;;;;;4.68;1.10;;;;;;;;;;5106128;27;20079;-78
2022/02/06 14:27:29;;;;;;;2.25;0.70;;;;;;;;;;5107819;27;20135;-78
2022/02/06 14:30:06;;;;;;;1.50;0.80;;;;;;;;;;5109686;27;20506;-78
2022/02/06 14:32:33;;;;;;;1.73;0.90;;;;;;;;;;5110113;27;20132;-78
2022/02/06 14:35:05;;;;;;;1.83;0.63;;;;;;;;;;5106516;27;20078;-79
2022/02/06 14:37:43;;;;;;;2.70;0.75;;;;;;;;;;5106423;27;20554;-81
2022/02/06 14:40:16;;;;;;;4.45;0.90;;;;;;;;;;5103211;27;20514;-85
2022/02/06 14:42:50;;;;;;;1.15;0.40;;;;;;;;;;5105898;27;20097;-79
2022/02/06 14:45:17;;;;;;;4.07;0.80;;;;;;;;;;5110939;27;20108;-79
2022/02/06 14:47:43;;;;;;;1.42;0.50;;;;;;;;;;5110495;27;20075;-79
2022/02/06 14:50:16;;;;;;;1.42;0.88;;;;;;;;;;5114312;27;20087;-76
2022/02/06 14:52:43;;;;;;;1.30;0.70;;;;;;;;;;5107987;27;20131;-77
2022/02/06 14:55:10;;;;;;;2.95;0.70;;;;;;;;;;5110941;27;20051;-78
2022/02/06 14:57:37;;;;;;;2.92;0.88;;;;;;;;;;5111047;27;20043;-77
2022/02/06 15:00:05;;;;;;;1.70;0.75;;;;;;;;;;5107342;27;20126;-77
2022/02/06 15:02:32;;;;;;;6.05;1.60;;;;;;;;;;5106246;27;20067;-77
2022/02/06 15:04:58;;;;;;;2.45;0.98;;;;;;;;;;5107806;27;20074;-78
2022/02/06 15:07:29;;;;;;;3.78;1.70;;;;;;;;;;5108438;27;20075;-78
2022/02/06 15:09:55;;;;;;;2.20;0.77;;;;;;;;;;5105313;27;20132;-79
2022/02/06 15:12:22;;;;;;;4.68;1.02;;;;;;;;;;5104828;27;20123;-79
2022/02/06 15:14:48;;;;;;;1.15;0.43;;;;;;;;;;5104115;27;20040;-81
2022/02/06 15:17:18;;;;;;;2.42;0.80;;;;;;;;;;5104552;27;20044;-79
2022/02/06 15:19:45;;;;;;;4.15;1.05;;;;;;;;;;5105675;27;20040;-79
2022/02/06 15:22:12;;;;;;;1.20;0.65;;;;;;;;;;5111328;27;20043;-78
2022/02/06 15:24:40;;;;;;;3.97;0.90;;;;;;;;;;5108203;27;20123;-80
2022/02/06 15:27:08;;;;;;;2.30;1.00;;;;;;;;;;5110049;27;20067;-82
2022/02/06 15:29:35;;;;;;;1.70;0.70;;;;;;;;;;5102775;27;20133;-81
2022/02/06 15:32:01;;;;;;;2.50;0.70;;;;;;;;;;5108604;27;20075;-78
2022/02/06 15:34:30;;;;;;;0.75;0.50;;;;;;;;;;5114887;27;20104;-79
2022/02/06 15:37:01;;;;;;;3.75;0.65;;;;;;;;;;5110715;27;20099;-80
2022/02/06 15:39:35;;;;;;;1.38;0.68;;;;;;;;;;5110209;27;20551;-78
2022/02/06 15:42:05;;;;;;;1.23;0.85;;;;;;;;;;5105288;27;20050;-80
2022/02/06 15:44:32;;;;;;;4.63;1.55;;;;;;;;;;5111906;27;20043;-78
2022/02/06 15:46:58;;;;;;;5.55;0.98;;;;;;;;;;5104824;27;20551;-82
2022/02/06 15:49:25;;;;;;;3.80;1.10;;;;;;;;;;5108259;27;20093;-78
2022/02/06 15:51:51;;;;;;;3.20;1.05;;;;;;;;;;5109396;27;20130;-80
2022/02/06 15:54:18;;;;;;;1.77;0.60;;;;;;;;;;5110541;27;20067;-79
2022/02/06 15:56:47;;;;;;;1.55;0.80;;;;;;;;;;5106881;27;20054;-79
2022/02/06 15:59:15;;;;;;;2.25;0.90;;;;;;;;;;5108848;27;20120;-78
2022/02/06 16:01:42;;;;;;;1.50;0.70;;;;;;;;;;5113278;27;20213;-78
2022/02/06 16:04:08;;;;;;;1.77;0.73;;;;;;;;;;5108537;27;20075;-78
2022/02/06 16:06:35;;;;;;;2.38;1.00;;;;;;;;;;5107160;27;20134;-78
2022/02/06 16:09:03;;;;;;;2.65;1.27;;;;;;;;;;5106198;27;20094;-79
2022/02/06 16:11:30;;;;;;;2.30;1.17;;;;;;;;;;5106906;27;20039;-78
2022/02/06 16:13:56;;;;;;;3.45;0.98;;;;;;;;;;5106881;27;20048;-79
2022/02/06 16:16:27;;;;;;;4.90;1.75;;;;;;;;;;5105008;27;20126;-79
2022/02/06 16:18:54;;;;;;;6.03;2.78;;;;;;;;;;5107635;27;20151;-80
2022/02/06 16:21:20;;;;;;;4.22;2.03;;;;;;;;;;5108252;27;20126;-79
2022/02/06 16:23:47;;;;;;;2.55;1.30;;;;;;;;;;5109705;27;20167;-78
2022/02/06 16:26:13;;;;;;;3.85;1.92;;;;;;;;;;5109082;27;20143;-78